Time;durP1;ratioP1;P1;durP2;ratioP2;P2;SDS_P1;SDS_P2;PMS_P1;PMS_P2;Temp;Humidity;BMP_temperature;BMP_pressure;BME280_temperature;BME280_humidity;BME280_pressure;Samples;Min_cycle;Max_cycle;Signal;HPM_P1;HPM_P2
2022/02/28 00:00:56;;;;;;;6.00;4.43;;;5.70;99.90;;;;;;5031076;28;20468;-60
2022/02/28 00:04:00;;;;;;;7.60;4.60;;;5.70;99.90;;;;;;5031819;28;20388;-60
2022/02/28 00:07:05;;;;;;;10.23;4.65;;;5.70;99.90;;;;;;5032091;28;20041;-60
2022/02/28 00:10:09;;;;;;;10.32;6.30;;;5.70;99.90;;;;;;5030713;28;20048;-60
2022/02/28 00:13:13;;;;;;;12.00;5.65;;;5.70;99.90;;;;;;5032025;28;20376;-60
2022/02/28 00:16:17;;;;;;;13.20;7.65;;;5.90;99.90;;;;;;5031383;28;20056;-61
2022/02/28 00:19:21;;;;;;;15.95;8.27;;;6.00;99.90;;;;;;5031608;28;20064;-60
2022/02/28 00:22:25;;;;;;;14.60;6.78;;;6.00;99.90;;;;;;5031258;28;20049;-60
2022/02/28 00:25:30;;;;;;;11.38;5.85;;;5.90;99.90;;;;;;5031534;28;20049;-61
2022/02/28 00:28:33;;;;;;;9.75;5.20;;;5.80;99.90;;;;;;5031481;28;20049;-61
2022/02/28 00:31:37;;;;;;;9.80;5.90;;;5.80;99.90;;;;;;5030753;28;20037;-61
2022/02/28 00:34:41;;;;;;;8.30;4.88;;;5.60;99.90;;;;;;5030512;28;20493;-60
2022/02/28 00:37:45;;;;;;;12.32;6.38;;;5.60;99.90;;;;;;5031555;28;20366;-60
2022/02/28 00:40:49;;;;;;;7.93;4.95;;;5.60;99.90;;;;;;5031178;28;20048;-59
2022/02/28 00:43:53;;;;;;;7.32;4.75;;;5.70;99.90;;;;;;5042053;28;20050;-59
2022/02/28 00:46:57;;;;;;;10.50;5.53;;;5.80;99.90;;;;;;5030658;28;20029;-59
2022/02/28 00:50:07;;;;;;;19.80;9.70;;;5.70;99.90;;;;;;5030996;28;20499;-60
2022/02/28 00:53:12;;;;;;;21.25;9.00;;;5.60;99.90;;;;;;5030739;28;20044;-59
2022/02/28 00:56:16;;;;;;;24.48;10.68;;;5.50;99.90;;;;;;5031055;28;20048;-58
2022/02/28 00:59:20;;;;;;;39.20;15.55;;;5.50;99.90;;;;;;5031371;28;20062;-60
2022/02/28 01:02:24;;;;;;;72.80;29.60;;;5.60;99.90;;;;;;5030156;28;20048;-60
2022/02/28 01:05:27;;;;;;;30.17;14.02;;;5.50;99.90;;;;;;5030213;28;20064;-59
2022/02/28 01:08:33;;;;;;;20.00;11.30;;;5.40;99.90;;;;;;5029908;28;20060;-60
2022/02/28 01:11:37;;;;;;;8.35;5.85;;;5.30;99.90;;;;;;5029562;28;20052;-59
2022/02/28 01:14:41;;;;;;;12.57;7.05;;;5.20;99.90;;;;;;5030743;28;20041;-59
2022/02/28 01:17:46;;;;;;;11.70;6.53;;;5.10;99.90;;;;;;5030636;28;20059;-60
2022/02/28 01:20:51;;;;;;;16.10;6.47;;;5.10;99.90;;;;;;5029741;28;20049;-60
2022/02/28 01:23:55;;;;;;;8.38;4.72;;;5.10;99.90;;;;;;5030594;28;20044;-59
2022/02/28 01:26:59;;;;;;;11.30;5.35;;;5.10;99.90;;;;;;5030423;28;20029;-60
2022/02/28 01:30:05;;;;;;;9.90;5.10;;;5.20;99.90;;;;;;5029973;28;20044;-59
2022/02/28 01:33:09;;;;;;;10.00;5.18;;;5.20;99.90;;;;;;5030474;28;20045;-59
2022/02/28 01:36:13;;;;;;;7.80;4.72;;;5.10;99.90;;;;;;5029312;28;20048;-60
2022/02/28 01:39:17;;;;;;;11.18;5.88;;;5.10;99.90;;;;;;5030144;28;20037;-60
2022/02/28 01:42:21;;;;;;;8.32;4.65;;;5.10;99.90;;;;;;5029442;28;20487;-60
2022/02/28 01:45:25;;;;;;;7.15;4.90;;;4.90;99.90;;;;;;5029229;28;20034;-60
2022/02/28 01:48:30;;;;;;;6.85;4.85;;;4.80;99.90;;;;;;5029068;28;20049;-60
2022/02/28 01:51:38;;;;;;;13.30;5.88;;;4.60;99.90;;;;;;5028781;28;20248;-60
2022/02/28 01:54:45;;;;;;;7.78;4.55;;;4.40;99.90;;;;;;5029921;28;20511;-60
2022/02/28 01:57:50;;;;;;;8.88;4.80;;;4.40;99.90;;;;;;5029780;28;20378;-60
2022/02/28 02:00:55;;;;;;;17.35;5.07;;;4.30;99.90;;;;;;5027997;28;20045;-60
2022/02/28 02:03:59;;;;;;;9.55;4.72;;;4.20;99.90;;;;;;5030128;28;20048;-60
2022/02/28 02:07:04;;;;;;;8.23;4.53;;;4.20;99.90;;;;;;5033696;28;20377;-60
2022/02/28 02:10:12;;;;;;;9.55;4.80;;;4.30;99.90;;;;;;5033537;28;20037;-60
2022/02/28 02:13:16;;;;;;;6.40;4.47;;;4.40;99.90;;;;;;5033644;28;20045;-59
2022/02/28 02:16:20;;;;;;;7.07;4.10;;;4.30;99.90;;;;;;5033758;28;20049;-60
2022/02/28 02:19:24;;;;;;;6.13;4.03;;;4.30;99.90;;;;;;5044177;28;20033;-60
2022/02/28 02:22:28;;;;;;;8.32;4.30;;;4.40;99.90;;;;;;5032160;28;20041;-60
2022/02/28 02:25:34;;;;;;;10.40;4.88;;;4.40;99.90;;;;;;5044260;28;20500;-61
2022/02/28 02:28:38;;;;;;;6.57;4.07;;;4.30;99.90;;;;;;5033677;28;20033;-60
2022/02/28 02:31:42;;;;;;;6.63;4.47;;;4.20;99.90;;;;;;5032918;28;20037;-60
2022/02/28 02:34:46;;;;;;;5.75;4.00;;;4.20;99.90;;;;;;5033177;28;20041;-60
2022/02/28 02:37:51;;;;;;;10.30;4.70;;;4.10;99.90;;;;;;5032392;28;20045;-60
2022/02/28 02:40:55;;;;;;;6.80;4.75;;;4.20;99.90;;;;;;5032590;28;20048;-60
2022/02/28 02:43:59;;;;;;;6.80;4.47;;;4.20;99.90;;;;;;5032206;28;20034;-60
2022/02/28 02:47:04;;;;;;;7.53;4.35;;;4.20;99.90;;;;;;5032387;28;20038;-60
2022/02/28 02:50:34;;;;;;;9.50;4.93;;;4.10;99.90;;;;;;5032701;28;20369;-60
2022/02/28 02:53:37;;;;;;;8.75;5.50;;;3.90;99.90;;;;;;5020692;28;20395;-59
2022/02/28 02:56:41;;;;;;;7.93;4.85;;;3.80;99.90;;;;;;5032667;28;20037;-60
2022/02/28 02:59:46;;;;;;;8.75;5.63;;;3.70;99.90;;;;;;5032015;28;20440;-59
2022/02/28 03:02:50;;;;;;;13.80;4.90;;;3.70;99.90;;;;;;5042570;28;20029;-60
2022/02/28 03:05:55;;;;;;;7.25;4.38;;;3.60;99.90;;;;;;5032854;28;20036;-60
2022/02/28 03:08:59;;;;;;;7.55;4.80;;;3.60;99.90;;;;;;5031897;28;20038;-60
2022/02/28 03:12:04;;;;;;;7.68;4.47;;;3.60;99.90;;;;;;5031030;28;20041;-60
2022/02/28 03:15:08;;;;;;;7.78;4.68;;;3.60;99.90;;;;;;5031853;28;20488;-60
2022/02/28 03:18:12;;;;;;;9.93;5.45;;;3.60;99.90;;;;;;5031730;28;20037;-60
2022/02/28 03:21:17;;;;;;;9.05;4.35;;;3.50;99.90;;;;;;5030868;28;20477;-60
2022/02/28 03:24:21;;;;;;;11.82;4.90;;;3.50;99.90;;;;;;5031845;28;20479;-61
2022/02/28 03:27:27;;;;;;;9.07;4.65;;;3.50;99.90;;;;;;5031571;28;20060;-61
2022/02/28 03:30:32;;;;;;;8.18;4.93;;;3.70;99.90;;;;;;5031197;28;20041;-60
2022/02/28 03:33:35;;;;;;;11.77;5.13;;;3.60;99.90;;;;;;5042772;28;20037;-61
2022/02/28 03:36:39;;;;;;;15.20;5.40;;;3.60;99.90;;;;;;5031210;28;20052;-60
2022/02/28 03:39:50;;;;;;;8.57;5.55;;;3.60;99.90;;;;;;5031442;28;20113;-60
2022/02/28 03:42:57;;;;;;;8.82;5.00;;;3.60;99.90;;;;;;5030943;28;20046;-60
2022/02/28 03:46:02;;;;;;;7.78;4.85;;;3.60;99.90;;;;;;5042639;28;20025;-60
2022/02/28 03:49:17;;;;;;;9.00;5.07;;;3.60;99.90;;;;;;5031510;28;20499;-61
2022/02/28 03:52:26;;;;;;;8.20;4.75;;;3.50;99.90;;;;;;5030790;28;20033;-60
2022/02/28 03:55:37;;;;;;;8.63;4.60;;;3.40;99.90;;;;;;5031444;28;20033;-60
2022/02/28 03:58:41;;;;;;;7.32;4.80;;;3.30;99.90;;;;;;5031493;28;20049;-60
2022/02/28 04:01:46;;;;;;;7.95;4.53;;;3.30;99.90;;;;;;5030543;28;20037;-60
2022/02/28 04:05:02;;;;;;;13.43;6.28;;;3.40;99.90;;;;;;5031486;28;20045;-60
2022/02/28 04:08:07;;;;;;;10.63;5.13;;;3.40;99.90;;;;;;5031130;28;20562;-60
2022/02/28 04:11:11;;;;;;;8.68;5.18;;;3.30;99.90;;;;;;5042149;28;20044;-60
2022/02/28 04:14:15;;;;;;;8.98;5.35;;;3.20;99.90;;;;;;5031664;28;20041;-60
2022/02/28 04:17:19;;;;;;;7.38;4.78;;;3.00;99.90;;;;;;5030683;28;20053;-60
2022/02/28 04:20:29;;;;;;;12.38;4.97;;;2.90;99.90;;;;;;5031087;28;20084;-60
2022/02/28 04:23:33;;;;;;;8.48;5.07;;;2.70;99.90;;;;;;5030260;28;20052;-60
2022/02/28 04:26:37;;;;;;;6.95;4.55;;;2.70;99.90;;;;;;5031095;28;20037;-60
2022/02/28 04:29:42;;;;;;;10.00;4.68;;;2.70;99.90;;;;;;5030196;28;20038;-60
2022/02/28 04:32:50;;;;;;;10.50;5.22;;;2.70;99.90;;;;;;5029285;28;20060;-60
2022/02/28 04:35:55;;;;;;;9.73;5.82;;;2.60;99.90;;;;;;5030313;28;20515;-60
2022/02/28 04:39:00;;;;;;;8.68;5.00;;;2.50;99.90;;;;;;5041758;28;20041;-60
2022/02/28 04:42:04;;;;;;;11.15;5.40;;;2.60;99.90;;;;;;5018233;28;20397;-60
2022/02/28 04:45:09;;;;;;;9.90;5.88;;;2.50;99.90;;;;;;5029657;28;20042;-59
2022/02/28 04:48:13;;;;;;;8.75;5.38;;;2.40;99.90;;;;;;5030229;28;20377;-60
2022/02/28 04:51:36;;;;;;;7.90;5.70;;;2.40;99.90;;;;;;5030452;28;20476;-60
2022/02/28 04:54:43;;;;;;;12.27;6.18;;;2.40;99.90;;;;;;5030061;28;20045;-60
2022/02/28 04:57:47;;;;;;;9.32;6.07;;;2.30;99.90;;;;;;5029737;28;20521;-60
2022/02/28 05:01:08;;;;;;;11.30;5.95;;;2.30;99.90;;;;;;5040745;28;20041;-60
2022/02/28 05:04:12;;;;;;;13.02;8.02;;;2.40;99.90;;;;;;5029748;28;20440;-59
2022/02/28 05:07:16;;;;;;;10.50;5.80;;;2.40;99.90;;;;;;5041149;28;20045;-60
2022/02/28 05:10:22;;;;;;;11.00;6.85;;;2.30;99.90;;;;;;5041068;28;20064;-60
2022/02/28 05:13:31;;;;;;;10.40;5.53;;;2.40;99.90;;;;;;5029421;28;20052;-60
2022/02/28 05:16:35;;;;;;;10.35;6.20;;;2.40;99.90;;;;;;5029443;28;20052;-60
2022/02/28 05:19:40;;;;;;;11.05;5.85;;;2.50;99.90;;;;;;5029355;28;20056;-60
2022/02/28 05:22:44;;;;;;;8.60;5.80;;;2.40;99.90;;;;;;5028940;28;20052;-59
2022/02/28 05:25:48;;;;;;;7.97;5.63;;;2.30;99.90;;;;;;5029420;28;20371;-60
2022/02/28 05:28:52;;;;;;;11.05;6.07;;;2.30;99.90;;;;;;5029583;28;20433;-60
2022/02/28 05:31:56;;;;;;;13.90;5.88;;;2.30;99.90;;;;;;5029807;28;20052;-60
2022/02/28 05:35:20;;;;;;;17.42;5.80;;;2.30;99.90;;;;;;5030249;28;20084;-59
2022/02/28 05:38:53;;;;;;;14.00;6.57;;;2.20;99.90;;;;;;5030463;28;20068;-60
2022/02/28 05:41:57;;;;;;;13.30;6.63;;;2.20;99.90;;;;;;5028459;28;20044;-59
2022/02/28 05:45:04;;;;;;;16.38;6.60;;;2.20;99.90;;;;;;5040719;28;20053;-59
2022/02/28 05:48:09;;;;;;;10.27;6.38;;;2.10;99.90;;;;;;5029346;28;20416;-60
2022/02/28 05:51:13;;;;;;;11.75;6.40;;;2.10;99.90;;;;;;5028425;28;20392;-60
2022/02/28 05:54:17;;;;;;;15.30;6.32;;;2.10;99.90;;;;;;5029804;28;20059;-60
2022/02/28 05:57:22;;;;;;;10.38;6.70;;;2.10;99.90;;;;;;5029616;28;20056;-60
2022/02/28 06:00:26;;;;;;;9.85;6.50;;;2.10;99.90;;;;;;5028814;28;20044;-59
2022/02/28 06:03:30;;;;;;;9.57;5.63;;;2.10;99.90;;;;;;5030076;28;20037;-59
2022/02/28 06:06:34;;;;;;;13.25;6.45;;;2.10;99.90;;;;;;5029774;28;20034;-60
2022/02/28 06:09:39;;;;;;;14.32;6.38;;;2.10;99.90;;;;;;5029837;28;20393;-60
2022/02/28 06:12:44;;;;;;;12.00;6.82;;;2.20;99.90;;;;;;5028245;28;20041;-60
2022/02/28 06:15:48;;;;;;;14.90;7.30;;;2.20;99.90;;;;;;5029262;28;20397;-60
2022/02/28 06:18:52;;;;;;;9.18;6.03;;;2.20;99.90;;;;;;5029874;28;20052;-60
2022/02/28 06:21:58;;;;;;;10.82;6.13;;;2.20;99.90;;;;;;5028780;28;20034;-59
2022/02/28 06:25:02;;;;;;;11.75;5.72;;;2.20;99.90;;;;;;5028672;28;20044;-60
2022/02/28 06:28:06;;;;;;;11.20;6.47;;;2.30;99.90;;;;;;5030324;28;20037;-59
2022/02/28 06:31:10;;;;;;;10.65;5.90;;;2.30;99.90;;;;;;5017707;28;20052;-59
2022/02/28 06:34:14;;;;;;;11.48;5.93;;;2.40;99.90;;;;;;5030545;28;20045;-60
2022/02/28 06:37:18;;;;;;;13.48;5.68;;;3.10;99.90;;;;;;5029630;28;20401;-60
2022/02/28 06:40:22;;;;;;;12.00;5.20;;;5.80;99.90;;;;;;5029533;28;20503;-60
2022/02/28 06:43:26;;;;;;;12.02;5.60;;;8.40;99.90;;;;;;5029648;28;20036;-61
2022/02/28 06:46:30;;;;;;;7.28;4.43;;;11.20;99.90;;;;;;5029269;28;20048;-61
2022/02/28 06:49:34;;;;;;;9.65;4.70;;;13.50;99.90;;;;;;5028566;28;20045;-61
2022/02/28 06:52:38;;;;;;;7.63;4.35;;;14.70;98.20;;;;;;5032142;28;20052;-61
2022/02/28 06:55:43;;;;;;;8.60;4.63;;;15.00;96.40;;;;;;5033041;28;20057;-61
2022/02/28 06:58:47;;;;;;;7.75;4.60;;;15.40;95.40;;;;;;5032072;28;20393;-61
2022/02/28 07:01:51;;;;;;;7.88;4.68;;;16.20;94.80;;;;;;5026788;28;20400;-61
2022/02/28 07:05:15;;;;;;;9.77;5.15;;;17.00;94.80;;;;;;5028791;28;20048;-62
2022/02/28 07:08:21;;;;;;;7.00;4.00;;;18.50;92.70;;;;;;5032004;28;20515;-61
2022/02/28 07:11:25;;;;;;;7.00;4.57;;;19.40;90.20;;;;;;5030274;28;20044;-61
2022/02/28 07:14:29;;;;;;;8.00;4.28;;;18.90;90.40;;;;;;5032776;28;20040;-61
2022/02/28 07:17:33;;;;;;;8.73;4.47;;;18.90;89.20;;;;;;5028835;28;20328;-61
2022/02/28 07:20:39;;;;;;;7.97;4.28;;;19.30;87.20;;;;;;5023730;28;20068;-61
2022/02/28 07:23:43;;;;;;;8.05;4.53;;;19.00;86.90;;;;;;5027455;28;20048;-61
2022/02/28 07:26:47;;;;;;;7.18;4.55;;;17.60;86.50;;;;;;5028602;28;20052;-61
2022/02/28 07:29:51;;;;;;;6.72;4.45;;;19.00;84.80;;;;;;5032254;28;20392;-61
2022/02/28 07:32:55;;;;;;;8.52;4.70;;;20.20;82.20;;;;;;5025108;28;20058;-61
2022/02/28 07:36:00;;;;;;;16.48;5.30;;;18.90;79.80;;;;;;5028430;28;20048;-62
2022/02/28 07:39:04;;;;;;;6.82;4.07;;;18.60;82.00;;;;;;5026585;28;20036;-62
2022/02/28 07:42:08;;;;;;;7.68;4.38;;;19.80;80.00;;;;;;5026728;28;20048;-60
2022/02/28 07:45:12;;;;;;;8.88;4.47;;;19.70;80.10;;;;;;5028080;28;20068;-60
2022/02/28 07:48:16;;;;;;;5.72;3.92;;;20.90;79.50;;;;;;5029709;28;20040;-61
2022/02/28 07:51:20;;;;;;;6.00;3.85;;;20.80;78.80;;;;;;5025576;28;20079;-60
2022/02/28 07:54:25;;;;;;;7.35;4.03;;;21.60;76.30;;;;;;5025077;28;20061;-61
2022/02/28 07:57:29;;;;;;;6.60;4.60;;;22.40;74.60;;;;;;5025597;28;20495;-60
2022/02/28 08:00:33;;;;;;;7.05;4.00;;;21.80;72.70;;;;;;5024232;28;20060;-61
2022/02/28 08:03:37;;;;;;;6.45;4.07;;;21.40;73.20;;;;;;5026805;28;20041;-61
2022/02/28 08:06:41;;;;;;;6.20;4.00;;;19.50;74.80;;;;;;5024754;28;20053;-61
2022/02/28 08:09:46;;;;;;;5.32;3.88;;;19.30;73.50;;;;;;5028067;28;20040;-61
2022/02/28 08:12:50;;;;;;;5.90;3.88;;;20.20;74.00;;;;;;5022048;28;20045;-61
2022/02/28 08:15:57;;;;;;;6.57;4.43;;;21.50;73.30;;;;;;5023695;28;20392;-61
2022/02/28 08:19:01;;;;;;;5.50;3.70;;;22.70;70.40;;;;;;5028693;28;20040;-62
2022/02/28 08:22:05;;;;;;;5.45;3.38;;;21.70;71.50;;;;;;5024970;28;20045;-61
2022/02/28 08:25:10;;;;;;;6.85;3.58;;;23.60;70.20;;;;;;5024533;28;20044;-61
2022/02/28 08:28:14;;;;;;;7.10;3.53;;;23.20;65.00;;;;;;5027580;28;20056;-61
2022/02/28 08:31:18;;;;;;;5.03;3.65;;;23.20;67.30;;;;;;5026446;28;20052;-61
2022/02/28 08:34:23;;;;;;;8.98;3.58;;;23.50;65.60;;;;;;5026175;28;20069;-61
2022/02/28 08:37:27;;;;;;;6.57;3.78;;;24.50;65.70;;;;;;5025772;28;20061;-61
2022/02/28 08:40:32;;;;;;;4.85;3.28;;;25.30;63.70;;;;;;5026489;28;20613;-60
2022/02/28 08:43:37;;;;;;;7.82;3.83;;;26.30;62.90;;;;;;5029051;28;20116;-62
2022/02/28 08:46:41;;;;;;;5.93;3.80;;;27.70;61.10;;;;;;5026060;28;20412;-61
2022/02/28 08:49:46;;;;;;;3.72;3.15;;;28.20;59.40;;;;;;5023670;28;20052;-61
2022/02/28 08:52:50;;;;;;;4.63;3.05;;;28.60;57.60;;;;;;5025491;28;20048;-61
2022/02/28 08:55:54;;;;;;;4.72;3.33;;;28.90;57.70;;;;;;5026281;28;20036;-61
2022/02/28 08:58:58;;;;;;;5.50;3.13;;;29.20;53.40;;;;;;5020853;28;20404;-61
2022/02/28 09:02:04;;;;;;;5.82;3.47;;;25.90;54.10;;;;;;5017502;28;20056;-60
2022/02/28 09:05:08;;;;;;;9.15;3.90;;;26.60;54.60;;;;;;5018392;28;20290;-61
2022/02/28 09:08:13;;;;;;;7.03;4.85;;;23.90;55.60;;;;;;5018685;28;20057;-61
2022/02/28 09:11:17;;;;;;;9.00;4.93;;;19.30;60.70;;;;;;5018645;28;20050;-60
2022/02/28 09:14:21;;;;;;;6.97;3.70;;;19.00;62.20;;;;;;5022926;28;20037;-60
2022/02/28 09:17:26;;;;;;;7.55;4.57;;;22.10;59.60;;;;;;5026245;28;20048;-61
2022/02/28 09:20:30;;;;;;;5.72;3.63;;;24.10;57.10;;;;;;5026687;28;20048;-61
2022/02/28 09:23:34;;;;;;;5.32;3.80;;;25.90;55.30;;;;;;5025136;28;20052;-61
2022/02/28 09:26:38;;;;;;;4.95;3.45;;;27.70;55.10;;;;;;5027917;28;20049;-61
2022/02/28 09:29:42;;;;;;;5.63;3.80;;;27.30;53.10;;;;;;5027159;28;20048;-62
2022/02/28 09:32:47;;;;;;;6.55;3.63;;;28.90;53.60;;;;;;5021308;28;20056;-62
2022/02/28 09:35:51;;;;;;;5.80;3.38;;;30.20;53.20;;;;;;5028403;28;20056;-61
2022/02/28 09:38:57;;;;;;;6.63;3.63;;;31.00;51.60;;;;;;5024144;28;20036;-62
2022/02/28 09:42:05;;;;;;;5.30;3.58;;;31.10;51.40;;;;;;5025923;28;20044;-63
2022/02/28 09:45:28;;;;;;;4.28;3.35;;;32.20;50.40;;;;;;5029820;28;20052;-61
2022/02/28 09:48:53;;;;;;;7.15;3.90;;;31.50;48.00;;;;;;5019467;28;20049;-62
2022/02/28 09:52:15;;;;;;;7.00;3.58;;;27.50;47.00;;;;;;5021647;28;20040;-62
2022/02/28 09:55:34;;;;;;;12.60;3.90;;;28.30;49.00;;;;;;5028880;28;20487;-62
2022/02/28 09:59:07;;;;;;;6.05;3.85;;;25.10;49.30;;;;;;5024326;28;20044;-62
2022/02/28 10:02:12;;;;;;;4.80;3.80;;;26.10;51.10;;;;;;5023415;28;20056;-61
2022/02/28 10:05:17;;;;;;;5.50;3.33;;;28.40;51.00;;;;;;5028943;28;20056;-62
2022/02/28 10:08:23;;;;;;;7.22;3.67;;;30.90;50.30;;;;;;5020576;28;20044;-62
2022/02/28 10:11:39;;;;;;;5.47;3.67;;;32.90;48.60;;;;;;5019713;28;20109;-62
2022/02/28 10:14:45;;;;;;;5.68;3.10;;;34.20;47.40;;;;;;5022263;28;20036;-62
2022/02/28 10:17:55;;;;;;;5.05;3.22;;;34.00;45.90;;;;;;5025995;28;20118;-62
2022/02/28 10:21:01;;;;;;;4.55;2.97;;;32.50;43.60;;;;;;5024463;28;20057;-62
2022/02/28 10:24:08;;;;;;;3.90;2.72;;;32.30;43.80;;;;;;5027741;28;20056;-62
2022/02/28 10:27:25;;;;;;;5.03;3.13;;;30.70;44.50;;;;;;5026863;28;20045;-62
2022/02/28 10:30:58;;;;;;;5.05;3.28;;;32.30;44.70;;;;;;5029628;28;20040;-61
2022/02/28 10:34:27;;;;;;;5.22;3.63;;;28.50;44.70;;;;;;5028525;28;20033;-61
2022/02/28 10:37:49;;;;;;;5.05;3.80;;;27.70;46.30;;;;;;5020031;28;20483;-62
2022/02/28 10:40:54;;;;;;;4.82;3.33;;;30.60;46.80;;;;;;5024630;28;20511;-63
2022/02/28 10:43:59;;;;;;;4.95;3.53;;;32.50;45.00;;;;;;5029752;28;20044;-62
2022/02/28 10:47:07;;;;;;;4.82;3.28;;;33.40;45.80;;;;;;5032046;28;21452;-62
2022/02/28 10:50:12;;;;;;;5.60;2.97;;;34.80;43.60;;;;;;5031535;28;20117;-62
2022/02/28 10:53:19;;;;;;;3.97;3.17;;;34.40;41.90;;;;;;5027051;28;20049;-62
2022/02/28 10:56:23;;;;;;;4.60;3.40;;;33.70;42.40;;;;;;5037928;28;20041;-62
2022/02/28 10:59:41;;;;;;;5.97;3.50;;;34.10;42.90;;;;;;5029643;28;20620;-62
2022/02/28 11:02:45;;;;;;;6.05;3.47;;;33.20;41.90;;;;;;5027010;28;20061;-61
2022/02/28 11:05:57;;;;;;;6.93;3.90;;;32.40;40.50;;;;;;5028875;28;20045;-61
2022/02/28 11:09:03;;;;;;;4.80;3.25;;;28.50;39.70;;;;;;5030317;28;20050;-61
2022/02/28 11:12:17;;;;;;;5.82;3.47;;;29.60;42.40;;;;;;5024793;28;20199;-62
2022/02/28 11:15:22;;;;;;;3.92;3.00;;;29.00;42.80;;;;;;5028587;28;20048;-61
2022/02/28 11:18:26;;;;;;;4.85;3.28;;;29.60;41.30;;;;;;5026925;28;20037;-63
2022/02/28 11:21:33;;;;;;;4.85;3.17;;;30.30;42.70;;;;;;5028611;28;20049;-62
2022/02/28 11:24:38;;;;;;;3.88;2.90;;;30.60;41.40;;;;;;5027731;28;20057;-61
2022/02/28 11:27:43;;;;;;;4.10;3.20;;;30.60;41.20;;;;;;5026048;28;20396;-62
2022/02/28 11:30:48;;;;;;;3.63;3.13;;;29.80;40.30;;;;;;5025614;28;20072;-62
2022/02/28 11:34:00;;;;;;;5.53;2.88;;;30.20;42.20;;;;;;5023786;28;20404;-61
2022/02/28 11:37:05;;;;;;;3.72;3.05;;;31.50;41.50;;;;;;5026754;28;20057;-61
2022/02/28 11:40:11;;;;;;;4.88;2.90;;;32.30;40.80;;;;;;5022574;28;20057;-62
2022/02/28 11:43:33;;;;;;;4.85;3.10;;;32.00;40.70;;;;;;5024956;28;20048;-62
2022/02/28 11:46:40;;;;;;;3.88;2.92;;;32.50;40.90;;;;;;5027471;28;20040;-62
2022/02/28 11:49:45;;;;;;;5.05;3.20;;;32.60;40.00;;;;;;5026863;28;20064;-62
2022/02/28 11:52:49;;;;;;;6.55;3.58;;;31.50;40.40;;;;;;5026050;28;20040;-62
2022/02/28 11:55:53;;;;;;;5.30;3.08;;;32.00;40.40;;;;;;5024505;28;20044;-62
2022/02/28 11:59:18;;;;;;;4.53;3.38;;;32.20;40.50;;;;;;5029044;28;20041;-62
2022/02/28 12:02:22;;;;;;;5.47;3.45;;;31.50;40.30;;;;;;5021564;28;20048;-63
2022/02/28 12:05:40;;;;;;;4.20;3.22;;;31.70;40.00;;;;;;5025265;28;20073;-62
2022/02/28 12:08:44;;;;;;;4.85;3.33;;;31.60;41.00;;;;;;5026664;28;20526;-61
2022/02/28 12:12:21;;;;;;;5.38;3.03;;;30.40;41.20;;;;;;5023192;28;20047;-61
2022/02/28 12:15:26;;;;;;;4.70;3.50;;;30.90;40.60;;;;;;5030027;28;20056;-62
2022/02/28 12:18:30;;;;;;;8.23;3.30;;;31.40;40.80;;;;;;5016296;28;20049;-62
2022/02/28 12:21:35;;;;;;;4.32;3.10;;;31.60;40.20;;;;;;5030341;28;20044;-62
2022/02/28 12:25:04;;;;;;;6.90;3.42;;;31.40;40.20;;;;;;5022152;28;20044;-62
2022/02/28 12:28:26;;;;;;;7.38;3.50;;;31.10;40.00;;;;;;5021397;28;20487;-61
2022/02/28 12:31:35;;;;;;;4.65;3.33;;;30.10;40.40;;;;;;5022130;28;20044;-62
2022/02/28 12:34:39;;;;;;;6.10;3.05;;;29.50;41.60;;;;;;5027048;28;20064;-62
2022/02/28 12:37:45;;;;;;;4.90;3.70;;;29.10;41.50;;;;;;5022715;28;20036;-61
2022/02/28 12:40:51;;;;;;;6.82;4.25;;;29.20;41.60;;;;;;5026797;28;20042;-62
2022/02/28 12:43:59;;;;;;;4.00;3.28;;;28.60;41.60;;;;;;5024661;28;20052;-61
2022/02/28 12:47:05;;;;;;;5.20;3.65;;;28.80;41.60;;;;;;5031332;28;20036;-61
2022/02/28 12:50:09;;;;;;;5.78;3.65;;;29.20;42.50;;;;;;5024801;28;20057;-62
2022/02/28 12:53:14;;;;;;;4.90;3.60;;;29.10;41.30;;;;;;5027160;28;20037;-61
2022/02/28 12:56:22;;;;;;;6.78;3.70;;;29.00;41.20;;;;;;5029905;28;20056;-61
2022/02/28 12:59:38;;;;;;;5.30;3.70;;;28.80;41.00;;;;;;5026324;28;21300;-61
2022/02/28 13:03:01;;;;;;;8.25;3.53;;;27.90;42.30;;;;;;5017049;28;20384;-61
2022/02/28 13:06:06;;;;;;;5.20;3.55;;;28.50;41.80;;;;;;5022855;28;20052;-61
2022/02/28 13:09:16;;;;;;;9.13;4.00;;;28.70;41.60;;;;;;5029798;28;20040;-61
2022/02/28 13:12:31;;;;;;;5.00;3.10;;;29.30;42.30;;;;;;5028732;28;20041;-61
2022/02/28 13:15:35;;;;;;;4.43;3.22;;;28.90;40.90;;;;;;5019739;28;20048;-62
2022/02/28 13:18:40;;;;;;;5.35;3.40;;;28.90;42.20;;;;;;5020724;28;20047;-61
2022/02/28 13:21:54;;;;;;;8.43;3.22;;;29.30;41.30;;;;;;5019663;28;20778;-62
2022/02/28 13:24:58;;;;;;;5.38;3.40;;;29.20;41.70;;;;;;5025998;28;20487;-61
2022/02/28 13:28:03;;;;;;;5.03;3.67;;;29.10;41.10;;;;;;5028752;28;20041;-61
2022/02/28 13:31:10;;;;;;;5.18;3.60;;;29.00;41.10;;;;;;5021937;28;20052;-61
2022/02/28 13:34:15;;;;;;;6.88;3.65;;;28.40;41.30;;;;;;5027857;28;20041;-62
2022/02/28 13:37:25;;;;;;;6.43;3.33;;;26.60;41.70;;;;;;5024610;28;20036;-62
2022/02/28 13:40:30;;;;;;;5.38;4.10;;;27.20;43.50;;;;;;5022656;28;20037;-61
2022/02/28 13:43:35;;;;;;;5.63;3.50;;;28.10;42.40;;;;;;5029267;28;20040;-61
2022/02/28 13:46:56;;;;;;;5.45;3.88;;;28.80;42.40;;;;;;5027506;28;20053;-61
2022/02/28 13:50:02;;;;;;;4.93;3.30;;;28.20;41.50;;;;;;5028243;28;20041;-63
2022/02/28 13:53:08;;;;;;;5.53;3.45;;;27.60;41.70;;;;;;5025155;28;20515;-60
2022/02/28 13:56:26;;;;;;;4.65;3.40;;;27.30;42.10;;;;;;5023382;28;20049;-61
2022/02/28 13:59:31;;;;;;;4.85;3.72;;;27.30;42.20;;;;;;5029896;28;20044;-61
2022/02/28 14:02:49;;;;;;;5.70;3.83;;;27.10;41.90;;;;;;5029726;28;20049;-61
2022/02/28 14:05:54;;;;;;;6.28;3.60;;;27.10;42.70;;;;;;5029706;28;20044;-63
2022/02/28 14:08:58;;;;;;;5.65;3.80;;;27.70;42.50;;;;;;5032053;28;20048;-61
2022/02/28 14:12:04;;;;;;;5.85;3.67;;;27.60;42.90;;;;;;5028670;28;20443;-61
2022/02/28 14:15:09;;;;;;;8.07;3.95;;;27.80;42.20;;;;;;5031344;28;20048;-63
2022/02/28 14:18:13;;;;;;;5.40;3.63;;;27.10;42.60;;;;;;5033013;28;20488;-62
2022/02/28 14:21:17;;;;;;;4.57;3.58;;;26.20;43.00;;;;;;5032905;28;20830;-61
2022/02/28 14:24:51;;;;;;;6.97;4.03;;;26.40;42.80;;;;;;5031849;28;20064;-61
2022/02/28 14:28:19;;;;;;;5.72;3.92;;;25.80;41.70;;;;;;5024423;28;20040;-61
2022/02/28 14:31:28;;;;;;;4.53;3.47;;;25.50;42.90;;;;;;5027542;28;20044;-62
2022/02/28 14:34:39;;;;;;;5.05;3.28;;;26.40;42.40;;;;;;5032658;28;20053;-61
2022/02/28 14:37:45;;;;;;;7.93;4.10;;;26.30;42.40;;;;;;5029035;28;20043;-62
2022/02/28 14:40:49;;;;;;;6.80;4.45;;;26.20;42.90;;;;;;5013043;28;20416;-61
2022/02/28 14:43:53;;;;;;;22.60;14.48;;;26.10;43.10;;;;;;5022570;28;20492;-61
2022/02/28 14:46:57;;;;;;;7.22;4.82;;;26.60;42.30;;;;;;5013567;28;20045;-61
2022/02/28 14:50:01;;;;;;;5.53;4.07;;;26.00;42.50;;;;;;5028793;28;20053;-61
2022/02/28 14:53:06;;;;;;;6.13;4.30;;;25.60;43.30;;;;;;5031985;28;20044;-62
2022/02/28 14:56:10;;;;;;;7.20;4.20;;;25.10;42.60;;;;;;5032140;28;20038;-61
2022/02/28 14:59:14;;;;;;;7.78;4.55;;;24.70;44.00;;;;;;5014309;28;20068;-61
2022/02/28 15:02:18;;;;;;;7.93;4.40;;;24.30;43.60;;;;;;5031231;28;20527;-61
2022/02/28 15:05:22;;;;;;;16.02;9.02;;;24.20;44.40;;;;;;5032647;28;20392;-61
2022/02/28 15:08:26;;;;;;;13.63;8.18;;;24.30;44.10;;;;;;5030779;28;20028;-61
2022/02/28 15:11:30;;;;;;;10.07;7.00;;;24.50;43.00;;;;;;5029571;28;20048;-61
2022/02/28 15:14:34;;;;;;;8.30;4.50;;;24.40;42.00;;;;;;5027805;28;20032;-61
2022/02/28 15:17:38;;;;;;;13.60;7.65;;;24.20;43.70;;;;;;5031023;28;20057;-62
2022/02/28 15:20:42;;;;;;;11.20;7.78;;;23.70;44.10;;;;;;5025741;28;20037;-61
2022/02/28 15:23:47;;;;;;;9.90;6.75;;;22.80;43.90;;;;;;5023677;28;20039;-61
2022/02/28 15:26:52;;;;;;;14.48;8.75;;;22.80;44.50;;;;;;5025110;28;21394;-60
2022/02/28 15:29:56;;;;;;;17.25;10.32;;;22.60;44.40;;;;;;5021655;28;20393;-61
2022/02/28 15:33:00;;;;;;;12.90;6.68;;;22.20;44.80;;;;;;5024772;28;20048;-61
2022/02/28 15:36:05;;;;;;;13.70;8.07;;;21.40;44.70;;;;;;5027099;28;20475;-60
2022/02/28 15:39:09;;;;;;;11.60;6.75;;;21.10;45.40;;;;;;5031158;28;20041;-61
2022/02/28 15:42:12;;;;;;;14.93;10.13;;;20.80;46.00;;;;;;5031268;28;20045;-61
2022/02/28 15:45:16;;;;;;;17.98;12.32;;;20.50;46.50;;;;;;5021271;28;20040;-61
2022/02/28 15:48:20;;;;;;;18.60;11.05;;;20.10;47.00;;;;;;5031110;28;20036;-60
2022/02/28 15:51:25;;;;;;;19.40;10.70;;;19.70;47.30;;;;;;5025135;28;20507;-61
2022/02/28 15:54:29;;;;;;;13.77;8.07;;;19.20;47.80;;;;;;5032037;28;20056;-60
2022/02/28 15:57:34;;;;;;;12.07;6.38;;;18.60;48.00;;;;;;5032158;28;20472;-60
2022/02/28 16:00:39;;;;;;;8.95;5.03;;;17.80;48.80;;;;;;5031701;28;20412;-60
2022/02/28 16:03:43;;;;;;;8.63;5.45;;;17.20;49.80;;;;;;5032002;28;20045;-60
2022/02/28 16:06:47;;;;;;;6.75;4.65;;;16.70;49.80;;;;;;5029507;28;20056;-61
2022/02/28 16:09:51;;;;;;;7.63;5.60;;;16.40;50.90;;;;;;5027848;28;20053;-60
2022/02/28 16:12:59;;;;;;;9.30;4.60;;;16.10;51.00;;;;;;5030580;28;20040;-60